Time;durP1;ratioP1;P1;durP2;ratioP2;P2;SDS_P1;SDS_P2;PMS_P1;PMS_P2;Temp;Humidity;BMP_temperature;BMP_pressure;BME280_temperature;BME280_humidity;BME280_pressure;Samples;Min_cycle;Max_cycle;Signal;HPM_P1;HPM_P2
2021/08/13 00:01:19;;;;;;;22.73;15.37;;;22.40;99.90;;;;;;4934969;29;20682;-93
2021/08/13 00:03:45;;;;;;;22.00;14.80;;;22.40;99.90;;;;;;4939157;29;20194;-93
2021/08/13 00:06:11;;;;;;;21.23;15.10;;;22.30;99.90;;;;;;4936988;29;20175;-80
2021/08/13 00:08:36;;;;;;;22.80;15.80;;;22.40;99.90;;;;;;4939036;29;20276;-80
2021/08/13 00:11:02;;;;;;;21.93;15.93;;;22.50;99.90;;;;;;4937766;29;20207;-82
2021/08/13 00:13:28;;;;;;;22.27;15.53;;;22.60;99.90;;;;;;4938693;29;20659;-90
2021/08/13 00:15:54;;;;;;;23.17;16.23;;;22.60;99.90;;;;;;4942108;29;20180;-86
2021/08/13 00:18:20;;;;;;;27.47;16.67;;;22.60;99.90;;;;;;4938218;29;20248;-88
2021/08/13 00:20:47;;;;;;;23.17;15.40;;;22.70;99.90;;;;;;4937897;29;20219;-93
2021/08/13 00:23:12;;;;;;;23.03;16.83;;;22.80;99.90;;;;;;4938159;29;20259;-88
2021/08/13 00:25:38;;;;;;;24.40;15.73;;;22.60;99.90;;;;;;4936754;29;20214;-86
2021/08/13 00:28:04;;;;;;;24.10;16.37;;;22.50;99.90;;;;;;4937193;29;20178;-80
2021/08/13 00:30:30;;;;;;;26.90;17.10;;;22.70;99.90;;;;;;4936472;29;20269;-89
2021/08/13 00:32:57;;;;;;;25.70;16.73;;;22.50;99.90;;;;;;4936482;29;20202;-93
2021/08/13 00:35:23;;;;;;;25.43;17.40;;;22.60;99.90;;;;;;4937777;29;20235;-87
2021/08/13 00:37:49;;;;;;;29.27;17.80;;;22.40;99.90;;;;;;4937125;29;20176;-80
2021/08/13 00:40:15;;;;;;;26.40;17.60;;;22.50;99.90;;;;;;4939492;29;20203;-80
2021/08/13 00:42:41;;;;;;;28.40;19.40;;;22.70;99.90;;;;;;4936672;29;20187;-79
2021/08/13 00:45:08;;;;;;;24.60;18.63;;;22.70;99.90;;;;;;4938092;29;20186;-80
2021/08/13 00:47:35;;;;;;;29.50;19.07;;;22.60;99.90;;;;;;4937666;29;20203;-90
2021/08/13 00:50:04;;;;;;;28.90;18.50;;;22.50;99.90;;;;;;4937744;29;20190;-86
2021/08/13 00:52:32;;;;;;;30.80;18.83;;;22.40;99.90;;;;;;4937475;29;20187;-90
2021/08/13 00:54:58;;;;;;;25.73;16.83;;;22.50;99.90;;;;;;4936747;29;20172;-87
2021/08/13 00:57:24;;;;;;;33.40;18.83;;;22.30;99.90;;;;;;4937234;29;20183;-89
2021/08/13 00:59:50;;;;;;;26.57;18.03;;;22.10;99.90;;;;;;4935087;29;20200;-89
2021/08/13 01:02:16;;;;;;;26.70;18.60;;;22.00;99.90;;;;;;4935654;29;20292;-93
2021/08/13 01:04:43;;;;;;;28.40;18.93;;;22.00;99.90;;;;;;4934862;29;20278;-93
2021/08/13 01:07:09;;;;;;;25.93;16.97;;;22.10;99.90;;;;;;4936227;29;20254;-80
2021/08/13 01:09:36;;;;;;;29.40;18.73;;;22.10;99.90;;;;;;4936045;29;20195;-83
2021/08/13 01:12:19;;;;;;;26.83;16.30;;;22.00;99.90;;;;;;4936002;29;20176;-80
2021/08/13 01:15:06;;;;;;;28.23;16.43;;;21.80;99.90;;;;;;4950061;28;20278;-80
2021/08/13 01:17:50;;;;;;;21.43;14.60;;;21.70;99.90;;;;;;4935627;29;20663;-79
2021/08/13 01:20:46;;;;;;;31.10;19.33;;;21.80;99.90;;;;;;4935140;29;20243;-80
2021/08/13 01:23:17;;;;;;;31.83;20.33;;;22.10;99.90;;;;;;4935277;29;20190;-91
2021/08/13 01:25:47;;;;;;;30.13;19.43;;;22.20;99.90;;;;;;4931387;29;20242;-94
2021/08/13 01:28:37;;;;;;;33.20;19.60;;;22.40;99.90;;;;;;4935032;29;20171;-80
2021/08/13 01:31:11;;;;;;;32.87;20.53;;;22.30;99.90;;;;;;4930028;29;20641;-83
2021/08/13 01:33:40;;;;;;;27.77;18.90;;;22.30;99.90;;;;;;4937279;29;20178;-80
2021/08/13 01:36:08;;;;;;;26.73;18.10;;;22.10;99.90;;;;;;4934991;29;20175;-79
2021/08/13 01:38:37;;;;;;;27.23;16.73;;;22.20;99.90;;;;;;4936067;29;20545;-80
2021/08/13 01:41:08;;;;;;;29.47;17.30;;;21.90;99.90;;;;;;4936498;29;20219;-81
2021/08/13 01:43:36;;;;;;;24.80;16.90;;;22.00;99.90;;;;;;4934541;29;20176;-83
2021/08/13 01:46:02;;;;;;;31.63;17.53;;;21.80;99.90;;;;;;4934983;29;20203;-83
2021/08/13 01:48:29;;;;;;;33.57;18.23;;;21.90;99.90;;;;;;4935636;29;20209;-83
2021/08/13 01:50:56;;;;;;;24.87;16.13;;;22.00;99.90;;;;;;4936045;29;20204;-85
2021/08/13 01:53:23;;;;;;;26.83;16.60;;;22.00;99.90;;;;;;4935103;29;20259;-84
2021/08/13 01:55:51;;;;;;;29.93;16.87;;;22.00;99.90;;;;;;4935392;29;20245;-83
2021/08/13 01:58:18;;;;;;;24.30;16.17;;;21.90;99.90;;;;;;4935854;29;20175;-84
2021/08/13 02:00:44;;;;;;;24.80;15.80;;;21.80;99.90;;;;;;4935393;29;20208;-90
2021/08/13 02:03:11;;;;;;;23.10;16.73;;;22.00;99.90;;;;;;4934507;29;20187;-87
2021/08/13 02:05:38;;;;;;;23.13;15.10;;;22.20;99.90;;;;;;4935103;29;20623;-85
2021/08/13 02:08:06;;;;;;;24.87;15.13;;;22.30;99.90;;;;;;4935013;29;20682;-93
2021/08/13 02:10:35;;;;;;;25.93;16.27;;;22.20;99.90;;;;;;4934376;29;20212;-80
2021/08/13 02:13:01;;;;;;;23.80;15.00;;;22.30;99.90;;;;;;4935982;29;20197;-83
2021/08/13 02:15:27;;;;;;;26.00;16.40;;;22.10;99.90;;;;;;4934197;29;20623;-80
2021/08/13 02:18:11;;;;;;;23.57;15.87;;;22.00;99.90;;;;;;4932354;29;20685;-80
2021/08/13 02:20:39;;;;;;;23.27;15.23;;;22.10;99.90;;;;;;4934106;29;20210;-80
2021/08/13 02:23:07;;;;;;;20.77;14.27;;;21.90;99.90;;;;;;4932899;29;20174;-80
2021/08/13 02:25:33;;;;;;;26.07;15.93;;;21.80;99.90;;;;;;4934321;29;21792;-79
2021/08/13 02:27:59;;;;;;;24.33;15.63;;;21.70;99.90;;;;;;4934972;29;20183;-88
2021/08/13 02:30:24;;;;;;;23.70;15.27;;;21.60;99.90;;;;;;4933479;29;20208;-80
2021/08/13 02:32:50;;;;;;;25.97;16.07;;;21.60;99.90;;;;;;4935775;29;20674;-83
2021/08/13 02:35:16;;;;;;;28.63;16.50;;;21.60;99.90;;;;;;4934535;29;20194;-87
2021/08/13 02:37:51;;;;;;;27.13;16.73;;;21.70;99.90;;;;;;4934948;29;20186;-86
2021/08/13 02:40:25;;;;;;;28.23;16.90;;;21.60;99.90;;;;;;4934880;29;20290;-89
2021/08/13 02:42:53;;;;;;;32.80;18.67;;;21.60;99.90;;;;;;4933919;29;20726;-88
2021/08/13 02:45:25;;;;;;;28.50;16.93;;;21.40;99.90;;;;;;4934079;29;20545;-93
2021/08/13 02:47:57;;;;;;;31.13;18.20;;;21.20;99.90;;;;;;4933640;29;20253;-93
2021/08/13 02:50:26;;;;;;;29.30;18.47;;;21.10;99.90;;;;;;4933845;29;20192;-91
2021/08/13 02:52:58;;;;;;;25.47;17.23;;;21.20;99.90;;;;;;4933318;29;20209;-90
2021/08/13 02:55:32;;;;;;;29.30;17.60;;;21.10;99.90;;;;;;4932708;29;20643;-80
2021/08/13 02:58:00;;;;;;;30.73;18.20;;;21.10;99.90;;;;;;4933395;29;20174;-84
2021/08/13 03:00:27;;;;;;;25.67;16.63;;;21.20;99.90;;;;;;4933535;29;20210;-79
2021/08/13 03:02:54;;;;;;;30.03;15.63;;;21.10;99.90;;;;;;4933975;29;20174;-79
2021/08/13 03:05:23;;;;;;;23.37;16.10;;;21.10;99.90;;;;;;4933720;29;20283;-79
2021/08/13 03:07:50;;;;;;;27.00;16.00;;;20.90;99.90;;;;;;4934631;29;20635;-80
2021/08/13 03:10:17;;;;;;;26.40;15.93;;;20.90;99.90;;;;;;4932040;29;20174;-80
2021/08/13 03:12:44;;;;;;;24.27;15.37;;;21.10;99.90;;;;;;4933048;29;20245;-79
2021/08/13 03:15:10;;;;;;;28.60;15.23;;;21.20;99.90;;;;;;4934236;29;20194;-79
2021/08/13 03:17:39;;;;;;;23.80;14.67;;;21.10;99.90;;;;;;4929370;29;20643;-80
2021/08/13 03:20:06;;;;;;;26.27;14.60;;;21.10;99.90;;;;;;4935152;29;20170;-80
2021/08/13 03:22:33;;;;;;;20.80;14.33;;;21.00;99.90;;;;;;4933192;29;20189;-87
2021/08/13 03:25:03;;;;;;;21.30;13.20;;;20.90;99.90;;;;;;4944236;29;20258;-90
2021/08/13 03:27:43;;;;;;;19.23;12.57;;;20.90;99.90;;;;;;4934096;29;20629;-87
2021/08/13 03:30:10;;;;;;;18.20;12.57;;;21.00;99.90;;;;;;4933770;29;20186;-94
2021/08/13 03:32:41;;;;;;;19.73;12.67;;;20.90;99.90;;;;;;4934970;29;20178;-93
2021/08/13 03:35:08;;;;;;;18.80;12.00;;;21.00;99.90;;;;;;4933469;29;20639;-80
2021/08/13 03:37:35;;;;;;;20.53;12.67;;;21.00;99.90;;;;;;4931718;29;20211;-88
2021/08/13 03:40:03;;;;;;;19.03;12.03;;;20.80;99.90;;;;;;4939413;29;20193;-80
2021/08/13 03:42:29;;;;;;;17.27;11.57;;;20.70;99.90;;;;;;4937687;29;20212;-80
2021/08/13 03:44:54;;;;;;;15.73;10.90;;;20.60;99.90;;;;;;4935055;29;20178;-80
2021/08/13 03:47:20;;;;;;;18.30;12.43;;;20.50;99.90;;;;;;4936614;29;20203;-80
2021/08/13 03:49:46;;;;;;;19.10;12.93;;;20.50;99.90;;;;;;4936800;29;20563;-84
2021/08/13 03:52:11;;;;;;;17.00;11.27;;;20.50;99.90;;;;;;4933629;29;20257;-87
2021/08/13 03:54:37;;;;;;;17.53;11.73;;;20.50;99.90;;;;;;4931473;29;20652;-80
2021/08/13 03:57:03;;;;;;;17.87;11.63;;;20.40;99.90;;;;;;4926735;29;20526;-80
2021/08/13 03:59:29;;;;;;;19.83;12.70;;;20.30;99.90;;;;;;4928758;29;20268;-79
2021/08/13 04:01:55;;;;;;;17.00;11.03;;;20.30;99.90;;;;;;4930683;29;20241;-91
2021/08/13 04:04:23;;;;;;;15.43;10.90;;;20.40;99.90;;;;;;4923250;29;20262;-95
2021/08/13 04:06:49;;;;;;;18.17;11.20;;;20.50;99.90;;;;;;4934041;29;20178;-80
2021/08/13 04:09:14;;;;;;;16.83;10.70;;;20.50;99.90;;;;;;4938439;29;20641;-79
2021/08/13 04:11:40;;;;;;;17.60;11.60;;;20.50;99.90;;;;;;4932834;29;20173;-80
2021/08/13 04:14:06;;;;;;;16.87;10.93;;;20.50;99.90;;;;;;4925224;29;20178;-80
2021/08/13 04:16:32;;;;;;;18.93;11.40;;;20.40;99.90;;;;;;4925915;29;20184;-79
2021/08/13 04:18:58;;;;;;;16.90;11.47;;;20.30;99.90;;;;;;4932670;29;20194;-82
2021/08/13 04:21:23;;;;;;;17.63;11.93;;;20.40;99.90;;;;;;4935755;29;20210;-79
2021/08/13 04:23:49;;;;;;;21.23;13.07;;;20.30;99.90;;;;;;4940088;28;20174;-80
2021/08/13 04:26:15;;;;;;;17.70;12.37;;;20.20;99.90;;;;;;4933927;29;20184;-85
2021/08/13 04:28:41;;;;;;;18.43;12.13;;;20.20;99.90;;;;;;4925370;29;20228;-80
2021/08/13 04:31:07;;;;;;;21.20;12.60;;;20.00;99.90;;;;;;4928531;29;20264;-80
2021/08/13 04:33:34;;;;;;;18.40;11.67;;;19.90;99.90;;;;;;4927164;29;20179;-81
2021/08/13 04:36:01;;;;;;;17.77;11.57;;;19.90;99.90;;;;;;4933568;29;20264;-92
2021/08/13 04:38:28;;;;;;;18.97;11.53;;;20.00;99.90;;;;;;4941725;28;20177;-89
2021/08/13 04:40:53;;;;;;;16.60;11.50;;;20.00;99.90;;;;;;4923217;29;20208;-79
2021/08/13 04:43:19;;;;;;;16.53;11.23;;;20.00;99.90;;;;;;4925163;29;20537;-84
2021/08/13 04:45:44;;;;;;;16.60;11.67;;;20.00;99.90;;;;;;4921327;29;20189;-80
2021/08/13 04:48:10;;;;;;;17.00;11.60;;;19.90;99.90;;;;;;4928574;29;20663;-89
2021/08/13 04:50:36;;;;;;;16.17;10.80;;;19.80;99.90;;;;;;4927045;29;20180;-85
2021/08/13 04:53:01;;;;;;;15.40;10.17;;;19.70;99.90;;;;;;4942642;28;20170;-84
2021/08/13 04:55:27;;;;;;;16.50;10.07;;;19.80;99.90;;;;;;4929707;29;20233;-90
2021/08/13 04:57:54;;;;;;;12.83;8.90;;;19.90;99.90;;;;;;4924903;29;20198;-85
2021/08/13 05:00:23;;;;;;;14.27;8.50;;;20.00;99.90;;;;;;4928877;29;20179;-80
2021/08/13 05:02:54;;;;;;;11.57;7.90;;;20.00;99.90;;;;;;4929703;29;20194;-91
2021/08/13 05:05:23;;;;;;;8.97;6.57;;;20.10;99.90;;;;;;4928754;29;20217;-90
2021/08/13 05:07:50;;;;;;;14.97;7.30;;;20.00;99.90;;;;;;4930911;29;20543;-84
2021/08/13 05:10:17;;;;;;;8.27;6.77;;;20.00;99.90;;;;;;4931741;29;20181;-90
2021/08/13 05:12:44;;;;;;;11.10;7.23;;;20.00;99.90;;;;;;4934791;29;20187;-82
2021/08/13 05:15:11;;;;;;;9.87;6.57;;;20.10;99.90;;;;;;4935586;29;20208;-89
2021/08/13 05:17:37;;;;;;;10.57;6.10;;;20.10;99.90;;;;;;4945349;29;20185;-86
2021/08/13 05:20:06;;;;;;;12.03;5.80;;;20.00;99.90;;;;;;4931273;29;20677;-80
2021/08/13 05:22:34;;;;;;;8.50;5.70;;;20.10;99.90;;;;;;4926762;29;20175;-93
2021/08/13 05:25:10;;;;;;;8.37;5.63;;;20.00;99.90;;;;;;4935448;29;20175;-92
2021/08/13 05:27:37;;;;;;;7.50;5.27;;;20.00;99.90;;;;;;4926446;29;20256;-84
2021/08/13 05:30:04;;;;;;;7.20;4.97;;;20.00;99.90;;;;;;4928941;29;20235;-89
2021/08/13 05:32:31;;;;;;;6.97;4.60;;;20.10;99.90;;;;;;4925437;29;20169;-89
2021/08/13 05:34:56;;;;;;;8.50;4.77;;;20.00;99.90;;;;;;4924164;29;20187;-93
2021/08/13 05:37:22;;;;;;;9.47;5.00;;;20.00;99.90;;;;;;4930176;29;20176;-83
2021/08/13 05:39:49;;;;;;;6.10;4.50;;;19.90;99.90;;;;;;4933342;29;20263;-91
2021/08/13 05:42:14;;;;;;;11.50;4.80;;;19.90;99.90;;;;;;4933526;29;20208;-89
2021/08/13 05:44:40;;;;;;;6.87;4.73;;;19.80;99.90;;;;;;4927957;29;20194;-85
2021/08/13 05:47:06;;;;;;;6.83;4.90;;;19.70;99.90;;;;;;4931548;29;20200;-80
2021/08/13 05:49:36;;;;;;;8.23;4.83;;;19.70;99.90;;;;;;4937650;29;20177;-88
2021/08/13 05:52:02;;;;;;;6.93;4.60;;;19.70;99.90;;;;;;4934894;29;20204;-80
2021/08/13 05:54:30;;;;;;;6.27;4.57;;;19.70;99.90;;;;;;4935477;29;20176;-82
2021/08/13 05:56:56;;;;;;;7.13;4.93;;;19.80;99.90;;;;;;4947885;28;20311;-81
2021/08/13 05:59:21;;;;;;;5.60;4.40;;;19.90;99.90;;;;;;4934721;29;20180;-92
2021/08/13 06:01:47;;;;;;;9.33;4.63;;;19.90;99.90;;;;;;4931832;29;20211;-89
2021/08/13 06:04:12;;;;;;;6.50;3.83;;;19.80;99.90;;;;;;4924052;29;20219;-90
2021/08/13 06:06:42;;;;;;;8.90;4.90;;;19.80;99.90;;;;;;4932289;29;20236;-88
2021/08/13 06:09:08;;;;;;;8.83;4.33;;;19.70;99.90;;;;;;4935638;29;20181;-86
2021/08/13 06:11:34;;;;;;;6.83;4.23;;;19.70;99.90;;;;;;4934469;29;20614;-83
2021/08/13 06:13:59;;;;;;;7.30;4.37;;;19.60;99.90;;;;;;4936566;29;20176;-90
2021/08/13 06:16:25;;;;;;;9.03;4.87;;;19.60;99.90;;;;;;4930827;29;20598;-87
2021/08/13 06:18:51;;;;;;;7.47;4.73;;;19.60;99.90;;;;;;4926884;29;20656;-80
2021/08/13 06:21:16;;;;;;;6.27;4.20;;;19.70;99.90;;;;;;4937087;29;20239;-81
2021/08/13 06:23:42;;;;;;;8.53;4.60;;;19.60;99.90;;;;;;4934331;29;20183;-80
2021/08/13 06:26:09;;;;;;;6.33;4.33;;;19.50;99.90;;;;;;4935540;29;20184;-80
2021/08/13 06:28:35;;;;;;;9.60;5.17;;;19.50;99.90;;;;;;4924509;29;20621;-82
2021/08/13 06:31:00;;;;;;;6.57;4.57;;;19.50;99.90;;;;;;4927085;29;20222;-80
2021/08/13 11:49:07;;;;;;;5.90;3.15;;;30.10;79.90;;;;;;6045818;23;20207;31
2021/08/13 11:51:36;;;;;;;6.73;2.80;;;30.20;78.40;;;;;;4919005;29;20212;-86
2021/08/13 11:54:03;;;;;;;6.27;2.70;;;30.10;78.60;;;;;;4921859;29;20172;-91
2021/08/13 11:56:32;;;;;;;5.50;2.73;;;30.20;78.60;;;;;;4933671;29;20176;-95
2021/08/13 11:59:06;;;;;;;5.43;3.57;;;30.20;77.80;;;;;;4922989;29;20179;-92
2021/08/13 12:01:48;;;;;;;6.30;2.97;;;30.10;78.10;;;;;;4923787;29;20217;-84
2021/08/13 12:04:23;;;;;;;4.83;2.50;;;30.40;78.60;;;;;;4919441;29;20177;-91
2021/08/13 12:07:11;;;;;;;4.90;3.00;;;30.80;77.40;;;;;;4919379;29;20183;-91
2021/08/13 12:09:40;;;;;;;7.00;3.10;;;31.00;77.20;;;;;;4917370;29;20260;-91
2021/08/13 12:12:08;;;;;;;6.30;3.07;;;31.00;76.90;;;;;;4918187;29;20173;-93
2021/08/13 12:14:40;;;;;;;5.13;3.37;;;30.80;76.40;;;;;;4925404;29;20184;-94
2021/08/13 12:17:06;;;;;;;4.67;2.90;;;30.40;77.20;;;;;;4928081;29;20184;-87
2021/08/13 12:19:33;;;;;;;5.13;3.17;;;30.00;77.80;;;;;;4922628;29;20188;-92
2021/08/13 12:22:02;;;;;;;5.43;3.30;;;29.90;78.10;;;;;;4924571;29;20216;-89
2021/08/13 12:24:30;;;;;;;5.23;2.83;;;29.60;78.50;;;;;;4929542;29;20223;-93
2021/08/13 12:27:01;;;;;;;8.43;3.20;;;29.40;79.40;;;;;;4922967;29;20188;-91
2021/08/13 12:29:29;;;;;;;5.73;3.50;;;29.30;80.00;;;;;;4923225;29;20220;-89
2021/08/13 12:32:00;;;;;;;6.23;2.50;;;29.20;80.30;;;;;;4927015;29;20188;-90
2021/08/13 12:34:31;;;;;;;6.20;3.10;;;29.90;78.90;;;;;;4920363;29;20184;-92
2021/08/13 12:37:09;;;;;;;5.43;2.80;;;30.40;78.90;;;;;;4920417;29;20187;-94
2021/08/13 15:34:11;;;;;;;7.43;2.80;;;31.00;73.00;;;;;;4954962;23;20285;-84
2021/08/13 15:36:38;;;;;;;7.03;2.97;;;30.20;74.30;;;;;;4956220;28;20199;-84
2021/08/13 15:39:04;;;;;;;5.83;2.90;;;29.90;75.10;;;;;;4956499;28;20175;-83
2021/08/13 15:41:29;;;;;;;6.93;2.90;;;29.90;74.60;;;;;;4955753;28;20222;-82
2021/08/13 15:43:55;;;;;;;7.83;3.00;;;30.00;74.70;;;;;;4951927;28;20199;-81
2021/08/13 15:46:20;;;;;;;8.93;3.00;;;30.20;73.40;;;;;;4954138;28;20206;-82
2021/08/13 15:48:46;;;;;;;7.13;3.10;;;30.00;72.00;;;;;;4956691;28;20183;-82
2021/08/13 15:51:12;;;;;;;7.07;3.27;;;29.50;71.90;;;;;;4951645;28;20188;-82
2021/08/13 15:53:38;;;;;;;9.80;3.40;;;28.70;72.70;;;;;;4954987;28;20221;-81
2021/08/13 15:56:04;;;;;;;5.53;2.70;;;28.20;73.50;;;;;;4952032;28;20282;-83
2021/08/13 15:58:30;;;;;;;5.70;3.13;;;28.20;73.70;;;;;;4955749;28;20337;-81
2021/08/13 16:00:56;;;;;;;8.17;3.53;;;28.70;71.50;;;;;;4956326;28;20217;-82
2021/08/13 16:03:21;;;;;;;6.00;3.17;;;28.80;71.30;;;;;;4951017;28;20191;-81
2021/08/13 16:05:47;;;;;;;7.93;3.87;;;28.70;69.90;;;;;;4956487;28;20192;-82
2021/08/13 16:08:13;;;;;;;7.10;3.30;;;28.80;70.40;;;;;;4958274;28;20198;-82
2021/08/13 16:10:40;;;;;;;5.00;2.57;;;29.10;70.20;;;;;;4953879;28;20240;-82
2021/08/13 16:13:05;;;;;;;6.30;3.23;;;29.30;69.60;;;;;;4947852;28;20186;-81
2021/08/13 16:15:31;;;;;;;7.57;3.40;;;29.30;69.50;;;;;;4950113;28;20201;-81
2021/08/13 16:17:56;;;;;;;7.60;3.83;;;29.30;69.20;;;;;;4936613;28;20291;-80
2021/08/13 16:20:22;;;;;;;10.17;4.00;;;28.70;69.70;;;;;;4949444;28;20187;-80
2021/08/13 16:22:48;;;;;;;9.23;3.87;;;28.70;70.40;;;;;;4952440;28;20590;-80
2021/08/13 16:25:13;;;;;;;12.50;3.60;;;28.90;70.10;;;;;;4956445;28;20246;-81
2021/08/13 16:27:39;;;;;;;7.90;3.87;;;29.30;69.00;;;;;;4952865;28;20290;-82
2021/08/13 16:30:05;;;;;;;7.27;3.77;;;29.50;68.90;;;;;;4953388;28;20185;-82
2021/08/13 16:32:30;;;;;;;8.60;3.57;;;29.50;68.70;;;;;;4952940;28;20213;-82
2021/08/13 16:34:56;;;;;;;6.53;3.83;;;29.70;68.00;;;;;;4955679;28;20677;-82
2021/08/13 16:37:22;;;;;;;8.83;3.60;;;30.20;67.60;;;;;;4956280;28;20264;-84
2021/08/13 16:39:47;;;;;;;4.90;3.40;;;30.40;67.40;;;;;;4955040;28;20195;-84
2021/08/13 16:42:13;;;;;;;6.20;3.53;;;30.40;66.30;;;;;;4954006;28;20670;-82
2021/08/13 16:44:38;;;;;;;7.13;3.17;;;30.60;65.90;;;;;;4955400;28;20186;-82
2021/08/13 16:47:04;;;;;;;11.03;3.73;;;30.70;65.90;;;;;;4953839;28;20183;-82
2021/08/13 16:49:29;;;;;;;9.13;3.73;;;30.80;65.90;;;;;;4955029;28;20532;-82
2021/08/13 16:51:55;;;;;;;9.50;3.37;;;30.50;65.60;;;;;;4953570;28;20743;-83
2021/08/13 16:54:21;;;;;;;8.40;3.10;;;30.30;65.80;;;;;;4952437;28;20203;-81
2021/08/13 16:56:46;;;;;;;7.20;3.70;;;29.90;66.50;;;;;;4949640;28;20187;-85
2021/08/13 16:59:12;;;;;;;7.27;2.97;;;29.60;67.10;;;;;;4954647;28;20921;-83
2021/08/13 17:01:38;;;;;;;6.70;3.40;;;29.50;67.80;;;;;;4954919;28;21658;-84
2021/08/13 17:04:04;;;;;;;8.33;3.47;;;29.40;67.90;;;;;;4955586;28;20274;-84
2021/08/13 17:06:29;;;;;;;8.00;2.60;;;29.00;70.10;;;;;;4955526;28;20187;-85
2021/08/13 17:08:55;;;;;;;7.07;3.07;;;29.00;70.40;;;;;;4954907;28;20195;-85
2021/08/13 17:11:20;;;;;;;7.53;2.63;;;29.20;70.30;;;;;;4953137;28;20194;-83
2021/08/13 17:13:46;;;;;;;8.63;3.30;;;29.70;69.70;;;;;;4955485;28;20192;-84
2021/08/13 17:16:12;;;;;;;6.03;2.80;;;29.90;69.10;;;;;;4955992;28;20223;-83
2021/08/13 17:18:37;;;;;;;8.33;2.57;;;30.10;69.00;;;;;;4949609;28;20234;-83
2021/08/13 17:21:03;;;;;;;11.47;2.67;;;30.40;67.90;;;;;;4956687;28;20238;-83
2021/08/13 17:23:29;;;;;;;6.53;2.80;;;30.40;67.70;;;;;;4955325;28;20218;-81
2021/08/13 17:25:54;;;;;;;6.47;2.53;;;30.10;67.90;;;;;;4955150;28;20194;-82
2021/08/13 17:28:20;;;;;;;7.90;2.43;;;30.10;67.50;;;;;;4954602;28;20249;-85
2021/08/13 17:30:46;;;;;;;8.67;2.70;;;30.10;67.50;;;;;;4955722;28;20202;-83
2021/08/13 17:33:11;;;;;;;10.67;2.57;;;30.30;67.10;;;;;;4950825;28;20210;-83
2021/08/13 17:35:40;;;;;;;9.53;2.90;;;29.90;67.60;;;;;;4953542;28;20226;-84
2021/08/13 17:38:05;;;;;;;6.97;2.50;;;29.40;68.50;;;;;;4952700;28;20637;-85
2021/08/13 17:40:33;;;;;;;7.17;2.57;;;29.00;69.70;;;;;;4950866;28;20214;-83
2021/08/13 17:42:59;;;;;;;4.93;2.27;;;29.30;69.30;;;;;;4950009;28;20218;-81
2021/08/13 17:45:26;;;;;;;7.13;2.80;;;29.70;68.60;;;;;;4953466;28;20210;-85
2021/08/13 17:47:52;;;;;;;9.40;2.80;;;30.00;68.00;;;;;;4952391;28;20179;-84
2021/08/13 17:50:17;;;;;;;5.93;2.57;;;30.00;68.90;;;;;;4955096;28;20191;-81
2021/08/13 17:52:43;;;;;;;7.37;2.40;;;29.90;69.50;;;;;;4953586;28;20571;-81
2021/08/13 17:55:09;;;;;;;8.53;2.67;;;30.10;68.60;;;;;;4954799;28;20611;-82
2021/08/13 17:57:34;;;;;;;6.03;2.50;;;30.20;67.10;;;;;;4955872;28;20228;-84
2021/08/13 18:00:00;;;;;;;6.70;2.40;;;29.90;67.90;;;;;;4953725;28;20703;-85
2021/08/13 18:02:25;;;;;;;7.80;2.50;;;29.50;67.70;;;;;;4955670;28;20219;-83
2021/08/13 18:04:52;;;;;;;12.57;3.07;;;29.10;68.60;;;;;;4956129;28;20547;-84
2021/08/13 18:07:17;;;;;;;5.93;2.23;;;28.70;69.10;;;;;;4961050;28;20192;-84
2021/08/13 18:09:43;;;;;;;9.90;2.90;;;28.70;69.50;;;;;;4953497;28;20250;-83
2021/08/13 18:12:09;;;;;;;8.63;2.73;;;28.60;71.00;;;;;;4954309;28;20652;-84
2021/08/13 18:14:34;;;;;;;8.37;2.90;;;28.50;70.30;;;;;;4954355;28;20194;-81
2021/08/13 18:17:00;;;;;;;5.57;2.60;;;28.40;70.80;;;;;;4951876;28;20183;-84
2021/08/13 18:19:26;;;;;;;5.30;2.43;;;28.00;71.10;;;;;;4950842;28;20206;-82
2021/08/13 18:21:52;;;;;;;7.00;2.57;;;27.60;72.00;;;;;;4949498;28;20565;-84
2021/08/13 18:24:20;;;;;;;7.20;2.33;;;27.20;72.20;;;;;;4957955;28;20205;-84
2021/08/13 18:26:47;;;;;;;8.70;2.50;;;26.90;73.10;;;;;;4953108;28;20194;-82
2021/08/13 18:29:13;;;;;;;8.93;2.70;;;26.90;72.60;;;;;;4954335;28;20264;-82
2021/08/13 18:31:40;;;;;;;11.30;2.70;;;27.00;73.30;;;;;;4951948;28;20242;-83
2021/08/13 18:34:07;;;;;;;7.50;2.43;;;27.00;72.10;;;;;;4947853;28;20206;-83
2021/08/13 18:36:34;;;;;;;8.00;3.13;;;27.00;72.40;;;;;;4953386;28;20189;-84
2021/08/13 18:39:01;;;;;;;10.33;2.97;;;26.90;72.90;;;;;;4951609;28;20193;-84
2021/08/13 18:41:27;;;;;;;11.83;3.00;;;27.00;72.80;;;;;;4951825;28;20232;-85
2021/08/13 18:43:54;;;;;;;9.03;2.90;;;26.80;72.60;;;;;;4953620;28;20216;-84
2021/08/13 18:46:19;;;;;;;7.90;3.00;;;26.70;72.90;;;;;;4949550;28;20632;-85
2021/08/13 18:48:45;;;;;;;7.47;2.50;;;26.60;73.10;;;;;;4946482;28;20237;-83
2021/08/13 18:51:10;;;;;;;12.63;2.87;;;26.50;75.70;;;;;;4949504;28;20265;-83
2021/08/13 18:53:36;;;;;;;8.47;2.50;;;26.50;73.80;;;;;;4948307;28;20188;-84
2021/08/13 18:56:02;;;;;;;6.87;2.70;;;26.60;73.80;;;;;;4946169;28;20225;-82
2021/08/13 18:58:28;;;;;;;12.03;2.90;;;26.50;74.40;;;;;;4945899;28;20197;-84
2021/08/13 19:00:54;;;;;;;8.90;2.80;;;26.40;75.60;;;;;;4950139;28;20684;-83
2021/08/13 19:03:25;;;;;;;7.67;2.80;;;26.50;74.90;;;;;;4941747;28;20302;-82
2021/08/13 19:05:54;;;;;;;6.73;2.50;;;26.40;74.40;;;;;;4948775;28;20209;-80
2021/08/13 19:08:20;;;;;;;6.57;2.33;;;26.40;75.30;;;;;;4953542;28;20188;-81
2021/08/13 19:10:45;;;;;;;14.90;4.50;;;26.30;74.70;;;;;;4964326;28;20222;-84
2021/08/13 19:13:11;;;;;;;8.53;2.53;;;26.30;74.60;;;;;;4959109;28;20285;-85
2021/08/13 19:15:39;;;;;;;6.70;2.70;;;26.10;75.10;;;;;;4957568;28;20186;-85
2021/08/13 19:18:05;;;;;;;6.43;2.67;;;26.00;75.90;;;;;;4958804;28;20641;-83
2021/08/13 19:20:32;;;;;;;8.40;2.53;;;25.80;76.00;;;;;;4962150;28;20193;-82
2021/08/13 19:22:57;;;;;;;9.10;2.87;;;25.80;75.80;;;;;;4953892;28;20272;-82
2021/08/13 19:25:23;;;;;;;10.33;2.57;;;25.90;75.50;;;;;;4955083;28;20191;-82
2021/08/13 19:27:50;;;;;;;13.53;5.17;;;25.70;76.10;;;;;;4953325;28;20668;-82
2021/08/13 19:30:16;;;;;;;12.03;4.97;;;25.60;76.60;;;;;;4942808;28;20192;-84
2021/08/13 19:32:42;;;;;;;8.27;3.77;;;25.60;76.60;;;;;;4955857;28;20199;-84
2021/08/13 19:35:10;;;;;;;9.63;3.33;;;25.40;76.90;;;;;;4957568;28;20218;-84
2021/08/13 19:37:37;;;;;;;9.93;3.83;;;25.40;76.90;;;;;;4955360;28;20325;-84
2021/08/13 19:40:05;;;;;;;9.27;3.03;;;25.40;76.90;;;;;;4955557;28;20249;-84
2021/08/13 19:42:31;;;;;;;8.10;2.90;;;25.30;78.00;;;;;;4954001;28;20218;-84
2021/08/13 19:44:57;;;;;;;9.90;3.27;;;25.30;78.90;;;;;;4956858;28;20226;-81
2021/08/13 19:47:23;;;;;;;8.50;2.90;;;25.30;77.60;;;;;;4961322;28;20639;-81
2021/08/13 19:49:49;;;;;;;12.07;6.13;;;25.20;78.00;;;;;;4952556;28;20224;-85
2021/08/13 19:52:15;;;;;;;8.80;4.00;;;25.10;77.80;;;;;;4948301;28;20195;-81
2021/08/13 19:54:40;;;;;;;10.43;3.60;;;25.10;77.50;;;;;;4949724;28;20211;-81
2021/08/13 19:57:06;;;;;;;9.20;3.20;;;25.10;76.70;;;;;;4948862;28;20307;-81
2021/08/13 19:59:32;;;;;;;10.67;2.90;;;25.10;76.30;;;;;;4948478;28;20183;-81
2021/08/13 20:01:58;;;;;;;7.37;2.70;;;25.10;76.30;;;;;;4931679;29;20227;-81
2021/08/13 20:04:25;;;;;;;6.53;2.93;;;25.00;76.40;;;;;;4950037;28;20191;-81
2021/08/13 20:06:50;;;;;;;7.37;2.90;;;24.80;76.80;;;;;;4954305;28;20183;-83
2021/08/13 20:09:16;;;;;;;7.57;2.97;;;24.60;77.20;;;;;;4954867;28;20194;-83
2021/08/13 20:11:41;;;;;;;9.10;3.10;;;24.60;77.80;;;;;;4953362;28;20215;-83
2021/08/13 20:14:08;;;;;;;9.37;2.60;;;24.70;76.80;;;;;;4951602;28;20191;-83
2021/08/13 20:16:34;;;;;;;13.20;3.03;;;24.70;77.10;;;;;;4950310;28;20202;-84
2021/08/13 20:18:59;;;;;;;6.43;2.97;;;24.70;77.20;;;;;;4956168;28;20585;-84
2021/08/13 20:21:25;;;;;;;8.20;2.80;;;24.70;76.90;;;;;;4958495;28;20237;-86
2021/08/13 20:23:50;;;;;;;7.63;2.73;;;24.60;77.20;;;;;;4956575;28;20183;-83
2021/08/13 20:26:16;;;;;;;8.23;2.77;;;24.50;77.40;;;;;;4957159;28;20199;-81
2021/08/13 20:28:42;;;;;;;9.13;3.10;;;24.30;78.60;;;;;;4958562;28;20198;-81
2021/08/13 20:31:08;;;;;;;9.23;3.30;;;24.40;78.90;;;;;;4947874;28;20184;-81
2021/08/13 20:33:37;;;;;;;5.77;2.87;;;24.50;77.90;;;;;;4949702;28;20609;-81
2021/08/13 20:36:03;;;;;;;9.37;3.13;;;24.30;78.40;;;;;;4952031;28;20629;-82
2021/08/13 20:38:28;;;;;;;12.60;2.90;;;24.40;78.00;;;;;;4950654;28;20648;-82
2021/08/13 20:40:54;;;;;;;8.33;3.23;;;24.40;77.90;;;;;;4949575;28;20187;-82
2021/08/13 20:43:20;;;;;;;7.93;3.20;;;24.30;78.60;;;;;;4947677;28;20546;-86
2021/08/13 20:45:47;;;;;;;8.20;2.87;;;24.10;80.30;;;;;;4942639;28;20277;-88
2021/08/13 20:48:16;;;;;;;7.30;3.30;;;24.00;81.80;;;;;;4951801;28;20187;-83